Time;durP1;ratioP1;P1;durP2;ratioP2;P2;SDS_P1;SDS_P2;PMS_P1;PMS_P2;Temp;Humidity;BMP_temperature;BMP_pressure;BME280_temperature;BME280_humidity;BME280_pressure;Samples;Min_cycle;Max_cycle;Signal;HPM_P1;HPM_P2
2023/01/04 00:09:25;;;;;;;10.70;4.80;;;;;;;;;;5002572;28;20208;-31
2023/01/04 00:12:21;;;;;;;8.13;5.17;;;;;;;;;;5007926;28;20233;-35
2023/01/04 00:15:22;;;;;;;5.70;4.73;;;;;;;;;;5006151;28;20231;-37
2023/01/04 00:18:13;;;;;;;6.50;4.70;;;;;;;;;;5006890;28;20199;-36
2023/01/04 00:21:09;;;;;;;7.57;5.03;;;;;;;;;;5014295;28;20221;-35
2023/01/04 00:24:16;;;;;;;6.57;4.80;;;;;;;;;;5005359;28;20299;-32
2023/01/04 00:27:00;;;;;;;8.13;5.30;;;;;;;;;;5014489;28;20206;-39
2023/01/04 00:29:52;;;;;;;9.03;5.40;;;;;;;;;;5004419;28;20240;-36
2023/01/04 00:32:36;;;;;;;6.70;4.33;;;;;;;;;;5010484;28;20414;-35
2023/01/04 00:38:44;;;;;;;7.03;4.50;;;;;;;;;;5007044;28;20221;-35
2023/01/04 00:41:44;;;;;;;6.83;4.33;;;;;;;;;;5012155;28;20234;-36
2023/01/04 00:44:36;;;;;;;6.47;4.87;;;;;;;;;;5013163;28;20215;-36
2023/01/04 00:47:32;;;;;;;;;;;;;;;;;;;;;
2023/01/04 00:50:28;;;;;;;7.40;4.60;;;;;;;;;;5015214;28;20211;-34
2023/01/04 00:53:22;;;;;;;7.13;5.60;;;;;;;;;;5009552;28;20223;-36
2023/01/04 00:56:13;;;;;;;7.37;5.50;;;;;;;;;;5008229;28;20211;-37
2023/01/04 00:59:04;;;;;;;7.90;5.70;;;;;;;;;;5016136;28;20243;-35
2023/01/04 01:02:10;;;;;;;;;;;;;;;;;;;;;
2023/01/04 01:05:04;;;;;;;10.77;5.87;;;;;;;;;;5019240;28;20199;-37
2023/01/04 01:07:49;;;;;;;11.43;7.13;;;;;;;;;;5003953;28;20208;-34
2023/01/04 01:10:41;;;;;;;14.83;9.63;;;;;;;;;;5013500;28;20231;-32
2023/01/04 01:13:46;;;;;;;15.43;8.23;;;;;;;;;;5016579;28;20242;-38
2023/01/04 01:16:34;;;;;;;12.83;6.63;;;;;;;;;;5018322;28;20207;-33
2023/01/04 01:22:27;;;;;;;12.73;7.10;;;;;;;;;;5009868;28;20251;-36
2023/01/04 01:25:07;;;;;;;10.07;6.60;;;;;;;;;;5018073;28;20207;-37
2023/01/04 01:30:54;;;;;;;11.43;7.33;;;;;;;;;;5011026;28;20223;-32
2023/01/04 01:33:46;;;;;;;13.57;7.80;;;;;;;;;;5016602;28;20282;-30
2023/01/04 01:36:32;;;;;;;9.67;7.10;;;;;;;;;;5010098;28;20218;-33
2023/01/04 01:39:30;;;;;;;13.33;8.00;;;;;;;;;;5015799;28;20211;-33
2023/01/04 01:42:22;;;;;;;12.23;7.73;;;;;;;;;;4997602;28;20278;-41
2023/01/04 01:45:23;;;;;;;10.87;7.07;;;;;;;;;;5000948;28;20230;-35
2023/01/04 01:51:14;;;;;;;12.67;7.67;;;;;;;;;;5004135;28;20213;-32
2023/01/04 01:57:16;;;;;;;13.80;8.00;;;;;;;;;;5016565;28;20209;-36
2023/01/04 01:59:57;;;;;;;12.00;7.30;;;;;;;;;;5011514;28;20406;-36
2023/01/04 02:02:55;;;;;;;18.17;10.23;;;;;;;;;;5075739;23;20301;-35
2023/01/04 02:05:57;;;;;;;13.03;8.37;;;;;;;;;;5015187;28;20215;-38
2023/01/04 02:08:48;;;;;;;12.50;8.03;;;;;;;;;;5015034;28;20218;-36
2023/01/04 02:11:43;;;;;;;13.97;8.13;;;;;;;;;;5014868;28;20238;-31
2023/01/04 02:14:45;;;;;;;14.03;9.17;;;;;;;;;;5026075;28;20272;-34
2023/01/04 02:17:30;;;;;;;14.53;7.57;;;;;;;;;;5025081;28;20206;-38
2023/01/04 02:20:25;;;;;;;12.87;7.97;;;;;;;;;;5025876;28;20229;-37
2023/01/04 02:23:31;;;;;;;14.80;8.80;;;;;;;;;;5034887;28;20734;-36
2023/01/04 02:26:25;;;;;;;13.47;8.30;;;;;;;;;;4959351;28;20251;-33
2023/01/04 02:29:18;;;;;;;12.53;7.93;;;;;;;;;;4969898;28;20291;-37
2023/01/04 02:32:08;;;;;;;14.90;7.60;;;;;;;;;;5024103;28;20219;-36
2023/01/04 02:34:52;;;;;;;11.33;7.47;;;;;;;;;;5035100;28;20293;-33
2023/01/04 02:52:36;;;;;;;12.77;7.50;;;;;;;;;;5008972;28;20314;-34
2023/01/04 02:55:28;;;;;;;10.93;7.17;;;;;;;;;;5033786;28;20206;-36
2023/01/04 03:07:44;;;;;;;12.70;6.70;;;;;;;;;;4995315;28;20207;-39
2023/01/04 03:13:15;;;;;;;10.83;6.33;;;;;;;;;;5014583;22;20255;-31
2023/01/04 03:19:50;;;;;;;8.30;6.27;;;;;;;;;;5013065;28;20206;-34
2023/01/04 03:35:21;;;;;;;9.37;6.07;;;;;;;;;;5035082;22;20249;-36
2023/01/04 03:37:08;;;;;;;9.33;6.40;;;;;;;;;;4995460;28;20219;-33
2023/01/04 03:48:51;;;;;;;7.27;5.37;;;;;;;;;;5013964;28;20233;-34
2023/01/04 03:51:36;;;;;;;9.23;5.40;;;;;;;;;;5011603;28;20254;-32
2023/01/04 03:54:22;;;;;;;8.40;5.13;;;;;;;;;;5002339;28;20298;-35
2023/01/04 03:57:05;;;;;;;9.77;5.93;;;;;;;;;;5006494;28;20271;-30
2023/01/04 04:14:01;;;;;;;7.27;5.03;;;;;;;;;;5051446;28;20210;-26
2023/01/04 04:16:49;;;;;;;10.23;5.10;;;;;;;;;;5054280;28;20206;-25
2023/01/04 04:22:30;;;;;;;6.53;4.90;;;;;;;;;;6123438;22;20266;-27
2023/01/04 04:25:49;;;;;;;5.97;4.73;;;;;;;;;;5009144;28;20238;-26
2023/01/04 04:28:52;;;;;;;7.93;6.00;;;;;;;;;;5008201;28;20207;-28
2023/01/04 04:31:30;;;;;;;7.80;5.33;;;;;;;;;;5010043;28;20237;-25
2023/01/04 04:34:22;;;;;;;9.30;6.00;;;;;;;;;;4996511;28;20229;-25
2023/01/04 04:37:05;;;;;;;6.93;5.20;;;;;;;;;;5002474;28;20227;-26
2023/01/04 04:42:39;;;;;;;9.80;5.27;;;;;;;;;;5014551;28;20230;-27
2023/01/04 04:45:16;;;;;;;8.60;5.70;;;;;;;;;;5017124;28;20208;-25
2023/01/04 04:47:59;;;;;;;6.57;4.90;;;;;;;;;;5016843;28;20202;-25
2023/01/04 04:50:38;;;;;;;7.10;5.70;;;;;;;;;;5016912;28;20594;-28
2023/01/04 04:53:19;;;;;;;8.33;5.07;;;;;;;;;;5008415;28;20301;-27
2023/01/04 04:56:02;;;;;;;6.07;4.83;;;;;;;;;;5012146;28;20207;-27
2023/01/04 05:01:55;;;;;;;7.40;5.13;;;;;;;;;;5014483;28;20315;-28
2023/01/04 05:04:34;;;;;;;6.67;5.17;;;;;;;;;;5017339;28;20203;-26
2023/01/04 05:10:10;;;;;;;7.30;5.23;;;;;;;;;;5012782;28;20211;-27
2023/01/04 05:13:04;;;;;;;5.87;4.50;;;;;;;;;;5012178;28;20290;-26
2023/01/04 05:15:43;;;;;;;7.60;4.83;;;;;;;;;;5013561;28;20242;-25
2023/01/04 05:18:36;;;;;;;8.13;6.37;;;;;;;;;;5016240;28;20254;-28
2023/01/04 05:21:14;;;;;;;6.70;5.20;;;;;;;;;;5012324;28;20231;-25
2023/01/04 05:23:56;;;;;;;5.57;4.87;;;;;;;;;;5012754;28;20219;-25
2023/01/04 05:26:35;;;;;;;6.73;5.23;;;;;;;;;;5010126;28;20217;-25
2023/01/04 05:32:13;;;;;;;6.90;4.80;;;;;;;;;;5004442;28;20354;-25
2023/01/04 05:35:16;;;;;;;7.47;5.63;;;;;;;;;;5007711;28;20227;-26
2023/01/04 05:37:55;;;;;;;7.40;4.83;;;;;;;;;;5015954;28;20207;-29
2023/01/04 05:40:33;;;;;;;7.47;5.03;;;;;;;;;;5015319;28;20258;-24
2023/01/04 05:43:21;;;;;;;6.43;4.80;;;;;;;;;;4999807;28;20211;-27
2023/01/04 05:46:07;;;;;;;7.33;4.80;;;;;;;;;;5007947;28;20222;-28
2023/01/04 05:51:37;;;;;;;6.07;4.87;;;;;;;;;;5013871;28;20254;-26
2023/01/04 06:03:40;;;;;;;9.30;4.80;;;;;;;;;;4665593;27;13814106;-32
2023/01/04 06:12:50;;;;;;;7.70;4.77;;;;;;;;;;5075395;22;20308;-34
2023/01/04 06:15:56;;;;;;;7.53;5.13;;;;;;;;;;5059852;28;20201;-32
2023/01/04 06:21:51;;;;;;;7.40;5.00;;;;;;;;;;5078945;28;20303;-33
2023/01/04 06:24:38;;;;;;;5.60;4.27;;;;;;;;;;5059277;28;20218;-35
2023/01/04 06:27:32;;;;;;;7.13;4.87;;;;;;;;;;5068815;28;20296;-38
2023/01/04 06:45:35;;;;;;;8.43;5.00;;;;;;;;;;5005573;28;20210;-26
2023/01/04 06:51:37;;;;;;;9.20;5.00;;;;;;;;;;5008855;28;20285;-27
2023/01/04 06:57:36;;;;;;;9.52;5.40;;;;;;;;;;4243308;27;25400643;-33
2023/01/04 07:06:58;;;;;;;8.77;5.50;;;;;;;;;;5103944;28;20210;-34
2023/01/04 07:09:58;;;;;;;7.10;4.53;;;;;;;;;;5093296;28;20258;-36
2023/01/04 07:12:55;;;;;;;9.23;4.73;;;;;;;;;;5099285;28;20282;-32
2023/01/04 07:21:39;;;;;;;10.03;5.53;;;;;;;;;;5092113;28;20274;-30
2023/01/04 07:24:28;;;;;;;6.30;4.90;;;;;;;;;;5109914;28;20204;-34
2023/01/04 07:27:25;;;;;;;7.37;4.93;;;;;;;;;;5095945;28;20384;-36
2023/01/04 07:30:14;;;;;;;6.60;5.20;;;;;;;;;;5096224;28;20216;-34
2023/01/04 07:36:40;;;;;;;9.70;6.27;;;;;;;;;;5110743;28;20235;-35
2023/01/04 07:39:29;;;;;;;7.37;5.33;;;;;;;;;;5103710;28;20276;-34
2023/01/04 07:45:14;;;;;;;9.10;5.20;;;;;;;;;;5100029;28;20212;-30
2023/01/04 07:48:12;;;;;;;6.03;4.87;;;;;;;;;;5102013;28;20232;-33
2023/01/04 07:50:48;;;;;;;6.40;4.53;;;;;;;;;;5110544;28;20295;-35
2023/01/04 07:53:35;;;;;;;8.63;4.70;;;;;;;;;;5121346;28;20202;-34
2023/01/04 07:56:22;;;;;;;6.67;4.87;;;;;;;;;;5116898;28;20227;-35
2023/01/04 07:59:06;;;;;;;5.57;4.87;;;;;;;;;;5121986;28;20207;-35
2023/01/04 08:01:47;;;;;;;9.00;4.97;;;;;;;;;;5116138;28;20229;-31
2023/01/04 08:04:25;;;;;;;7.60;4.90;;;;;;;;;;5121989;28;20731;-34
2023/01/04 08:07:05;;;;;;;8.43;5.20;;;;;;;;;;5121941;28;20202;-38
2023/01/04 08:09:43;;;;;;;6.63;5.03;;;;;;;;;;5104970;28;20204;-34
2023/01/04 08:12:20;;;;;;;7.80;4.93;;;;;;;;;;5109268;28;20282;-34
2023/01/04 08:15:03;;;;;;;6.37;4.90;;;;;;;;;;5109643;28;20207;-35
2023/01/04 08:17:59;;;;;;;7.47;5.50;;;;;;;;;;5100274;28;20673;-34
2023/01/04 08:20:45;;;;;;;8.93;5.03;;;;;;;;;;5094161;28;20260;-34
2023/01/04 08:23:33;;;;;;;8.83;6.10;;;;;;;;;;5110238;28;20212;-32
2023/01/04 08:26:13;;;;;;;7.57;5.70;;;;;;;;;;5101551;28;20192;-32
2023/01/04 08:28:50;;;;;;;8.80;5.77;;;;;;;;;;5106215;28;20212;-28
2023/01/04 08:31:26;;;;;;;6.33;4.97;;;;;;;;;;5113257;28;20227;-35
2023/01/04 08:36:47;;;;;;;5.83;5.13;;;;;;;;;;5111353;28;20273;-35
2023/01/04 08:39:20;;;;;;;7.27;5.13;;;;;;;;;;5100668;28;20214;-33
2023/01/04 08:41:53;;;;;;;7.77;5.57;;;;;;;;;;5100553;28;20232;-34
2023/01/04 08:47:41;;;;;;;9.90;6.13;;;;;;;;;;5094388;28;20571;-37
2023/01/04 08:50:30;;;;;;;8.10;5.13;;;;;;;;;;5100712;28;20197;-36
2023/01/04 08:53:26;;;;;;;8.73;6.40;;;;;;;;;;5104369;28;20211;-33
2023/01/04 08:56:02;;;;;;;9.07;5.80;;;;;;;;;;5103198;28;20220;-35
2023/01/04 08:58:35;;;;;;;10.27;5.50;;;;;;;;;;5106173;28;20196;-36
2023/01/04 09:01:16;;;;;;;7.07;5.67;;;;;;;;;;5094677;28;20278;-35
2023/01/04 09:03:54;;;;;;;7.10;5.47;;;;;;;;;;5111705;28;20224;-36
2023/01/04 09:06:32;;;;;;;5.93;5.03;;;;;;;;;;5093929;28;20218;-36
2023/01/04 09:09:21;;;;;;;;;;;;;;;;;;;;;
2023/01/04 09:11:58;;;;;;;7.93;5.77;;;;;;;;;;5105459;28;20236;-38
2023/01/04 09:15:00;;;;;;;9.53;5.50;;;;;;;;;;5461560;22;20246;-24
2023/01/04 09:17:44;;;;;;;7.27;5.13;;;;;;;;;;5071263;28;20598;-26
2023/01/04 09:20:28;;;;;;;8.37;5.17;;;;;;;;;;5070561;28;20662;-25
2023/01/04 09:23:07;;;;;;;5.60;4.70;;;;;;;;;;5039172;28;20245;-25
2023/01/04 09:25:54;;;;;;;8.03;5.53;;;;;;;;;;5051218;28;20190;-25
2023/01/04 09:29:10;;;;;;;8.70;6.30;;;;;;;;;;5049794;28;20285;-24
2023/01/04 09:31:51;;;;;;;9.50;6.03;;;;;;;;;;4991143;28;20217;-26
2023/01/04 09:34:39;;;;;;;9.23;7.43;;;;;;;;;;5048688;28;20205;-28
2023/01/04 09:40:18;;;;;;;13.03;6.60;;;;;;;;;;5046320;28;20208;-27
2023/01/04 09:46:20;;;;;;;8.87;6.83;;;;;;;;;;5036041;28;20289;-26
2023/01/04 09:48:59;;;;;;;15.03;7.23;;;;;;;;;;5040754;28;20297;-24
2023/01/04 09:54:45;;;;;;;8.60;5.97;;;;;;;;;;5039808;28;20206;-26
2023/01/04 10:08:13;;;;;;;14.57;7.17;;;;;;;;;;5029696;28;20215;-27
2023/01/04 10:11:25;;;;;;;9.53;6.47;;;;;;;;;;5030422;28;20209;-25
2023/01/04 10:14:07;;;;;;;6.17;5.57;;;;;;;;;;5024158;28;20234;-27
2023/01/04 10:16:51;;;;;;;8.33;6.50;;;;;;;;;;5029566;28;20223;-24
2023/01/04 10:19:43;;;;;;;9.90;6.30;;;;;;;;;;5031349;28;20606;-27
2023/01/04 10:22:41;;;;;;;9.77;6.47;;;;;;;;;;5027903;28;20268;-27
2023/01/04 10:31:46;;;;;;;10.97;6.53;;;;;;;;;;5030251;28;20221;-24
2023/01/04 10:34:40;;;;;;;12.23;6.30;;;;;;;;;;5023743;28;20230;-27
2023/01/04 10:37:34;;;;;;;11.10;6.93;;;;;;;;;;5027457;28;20303;-27
2023/01/04 10:40:19;;;;;;;8.80;6.60;;;;;;;;;;5027981;28;20212;-25
2023/01/04 10:43:00;;;;;;;9.57;6.40;;;;;;;;;;5018177;28;20280;-25
2023/01/04 10:45:54;;;;;;;9.57;5.63;;;;;;;;;;5028640;28;20207;-27
2023/01/04 10:48:42;;;;;;;11.27;6.97;;;;;;;;;;5031532;28;20207;-24
2023/01/04 10:51:19;;;;;;;8.27;6.00;;;;;;;;;;5029861;28;20257;-25
2023/01/04 10:53:58;;;;;;;8.50;6.60;;;;;;;;;;5022548;28;20211;-25
2023/01/04 10:56:38;;;;;;;10.40;6.57;;;;;;;;;;5027314;28;20246;-26
2023/01/04 10:59:20;;;;;;;8.00;6.70;;;;;;;;;;5024900;28;20212;-24
2023/01/04 11:07:26;;;;;;;10.90;6.73;;;;;;;;;;4997562;28;20735;-26
2023/01/04 11:10:30;;;;;;;8.07;6.47;;;;;;;;;;5024706;28;20270;-27
2023/01/04 11:13:07;;;;;;;9.97;6.37;;;;;;;;;;4999382;28;20206;-25
2023/01/04 11:15:42;;;;;;;12.20;7.43;;;;;;;;;;5013225;28;20213;-26
2023/01/04 11:24:04;;;;;;;10.77;7.50;;;;;;;;;;5304028;22;20228;-24
2023/01/04 11:26:53;;;;;;;13.53;7.40;;;;;;;;;;5071956;28;20197;-25
2023/01/04 11:29:59;;;;;;;10.67;7.30;;;;;;;;;;5069673;28;20258;-25
2023/01/04 11:32:49;;;;;;;14.80;7.63;;;;;;;;;;5070220;28;20224;-26
2023/01/04 11:35:47;;;;;;;10.53;7.50;;;;;;;;;;5073143;28;20198;-27
2023/01/04 11:49:34;;;;;;;8.37;6.50;;;;;;;;;;5576408;22;20249;-23
2023/01/04 11:52:55;;;;;;;9.60;6.07;;;;;;;;;;5048457;28;20229;-24
2023/01/04 11:56:03;;;;;;;10.77;6.47;;;;;;;;;;5043151;28;20226;-25
2023/01/04 12:10:38;;;;;;;0.80;0.80;;;;;;;;;;5013630;28;20220;-24
2023/01/04 12:16:46;;;;;;;0.80;0.80;;;;;;;;;;4981576;28;20211;-23
2023/01/04 12:19:21;;;;;;;1.60;0.80;;;;;;;;;;5015379;28;20332;-24
2023/01/04 12:22:02;;;;;;;2.83;0.90;;;;;;;;;;5010724;28;20229;-23
2023/01/04 12:24:44;;;;;;;0.90;0.80;;;;;;;;;;5013766;28;20211;-24
2023/01/04 12:27:24;;;;;;;0.80;0.80;;;;;;;;;;5025092;28;20199;-25
2023/01/04 12:36:14;;;;;;;0.60;0.53;;;;;;;;;;5045586;28;20194;-24
2023/01/04 12:39:14;;;;;;;0.70;0.70;;;;;;;;;;5047717;28;20225;-26
2023/01/04 12:42:11;;;;;;;0.60;0.60;;;;;;;;;;5054455;28;20230;-24
2023/01/04 12:44:58;;;;;;;2.00;0.60;;;;;;;;;;5018058;28;20210;-25
2023/01/04 12:51:10;;;;;;;1.03;0.53;;;;;;;;;;4989735;28;21153;-26
2023/01/04 12:54:05;;;;;;;2.00;0.80;;;;;;;;;;5052441;28;20216;-25
2023/01/04 12:57:01;;;;;;;;;;;;;;;;;;;;;
2023/01/04 12:59:49;;;;;;;0.77;0.70;;;;;;;;;;5024094;28;20442;-25
2023/01/04 13:02:34;;;;;;;1.23;0.80;;;;;;;;;;5053668;28;20288;-23
2023/01/04 13:05:04;;;;;;;2.03;0.70;;;;;;;;;;5051123;28;20205;-27
2023/01/04 13:07:45;;;;;;;2.00;1.10;;;;;;;;;;5048445;28;20210;-27
2023/01/04 13:10:33;;;;;;;1.77;0.80;;;;;;;;;;5053576;28;20253;-24
2023/01/04 13:13:18;;;;;;;2.00;1.50;;;;;;;;;;5047412;28;20210;-25
2023/01/04 13:16:16;;;;;;;2.63;2.40;;;;;;;;;;5045694;28;20198;-24
2023/01/04 13:18:59;;;;;;;1.13;0.87;;;;;;;;;;5053305;28;20198;-25
2023/01/04 13:21:39;;;;;;;0.70;0.70;;;;;;;;;;5053269;28;20226;-27
2023/01/04 13:24:25;;;;;;;1.90;1.07;;;;;;;;;;5049643;28;20256;-25
2023/01/04 13:27:15;;;;;;;0.90;0.90;;;;;;;;;;5047828;28;20206;-26
2023/01/04 13:29:49;;;;;;;0.93;0.90;;;;;;;;;;5050680;28;20292;-24
2023/01/04 13:48:56;;;;;;;0.90;0.80;;;;;;;;;;5014981;28;20199;-24
2023/01/04 13:51:59;;;;;;;1.80;0.87;;;;;;;;;;5018335;28;20251;-26
2023/01/04 13:54:39;;;;;;;0.80;0.70;;;;;;;;;;5031104;28;20229;-27
2023/01/04 13:57:30;;;;;;;0.80;0.80;;;;;;;;;;5040000;28;20280;-26
2023/01/04 14:03:11;;;;;;;0.90;0.73;;;;;;;;;;5033598;28;20235;-26
2023/01/04 14:05:50;;;;;;;1.07;0.93;;;;;;;;;;5025695;28;20211;-24
2023/01/04 14:08:45;;;;;;;0.77;0.60;;;;;;;;;;5014639;28;20210;-24
2023/01/04 14:14:39;;;;;;;0.87;0.77;;;;;;;;;;5029068;28;20213;-26
2023/01/04 14:17:25;;;;;;;1.10;0.70;;;;;;;;;;5013818;28;20227;-26
2023/01/04 14:20:09;;;;;;;2.03;0.80;;;;;;;;;;5013887;28;20203;-25
2023/01/04 14:23:09;;;;;;;1.73;0.80;;;;;;;;;;5020426;28;20285;-25
2023/01/04 14:28:57;;;;;;;1.10;0.90;;;;;;;;;;5027901;28;20222;-24
2023/01/04 14:37:25;;;;;;;1.97;1.07;;;;;;;;;;5301116;22;20242;-27
2023/01/04 14:43:30;;;;;;;0.73;0.73;;;;;;;;;;5018693;28;20656;-26
2023/01/04 14:46:16;;;;;;;0.83;0.80;;;;;;;;;;5029236;28;20218;-23
2023/01/04 14:51:57;;;;;;;0.83;0.73;;;;;;;;;;5030403;28;20237;-26
2023/01/04 14:54:44;;;;;;;0.80;0.80;;;;;;;;;;5033392;28;20298;-25
2023/01/04 15:00:28;;;;;;;2.20;1.00;;;;;;;;;;5028353;28;20261;-24
2023/01/04 15:03:31;;;;;;;1.53;0.83;;;;;;;;;;5026590;28;20272;-25
2023/01/04 15:06:07;;;;;;;0.83;0.80;;;;;;;;;;5033348;28;20206;-26
2023/01/04 15:38:29;;;;;;;1.37;1.13;;;;;;;;;;5049391;26;20316;-25
2023/01/04 15:44:02;;;;;;;2.83;1.30;;;;;;;;;;5050633;28;20206;-27
2023/01/04 15:46:40;;;;;;;1.80;1.20;;;;;;;;;;5054601;28;20209;-25
2023/01/04 15:49:16;;;;;;;1.17;1.00;;;;;;;;;;5055934;28;20217;-25
2023/01/04 15:57:21;;;;;;;48.20;19.50;;;;;;;;;;5225356;22;20412;-25
2023/01/04 15:59:59;;;;;;;8.80;5.53;;;;;;;;;;5062186;28;20210;-25
2023/01/04 16:02:42;;;;;;;2.97;2.70;;;;;;;;;;5073601;28;20248;-25
2023/01/04 16:08:08;;;;;;;1.20;1.20;;;;;;;;;;5064475;28;20203;-27
2023/01/04 16:10:49;;;;;;;1.13;0.53;;;;;;;;;;5054583;28;20216;-27
2023/01/04 16:13:41;;;;;;;1.57;0.77;;;;;;;;;;5050564;28;20206;-25
2023/01/04 16:16:20;;;;;;;2.20;0.83;;;;;;;;;;5059295;28;20213;-25
2023/01/04 16:18:58;;;;;;;0.83;0.80;;;;;;;;;;5075713;28;20326;-25
2023/01/04 16:21:39;;;;;;;0.77;0.70;;;;;;;;;;5278952;22;20238;-26
2023/01/04 16:24:22;;;;;;;0.93;0.70;;;;;;;;;;5039628;28;20210;-25
2023/01/04 16:26:58;;;;;;;0.50;0.50;;;;;;;;;;5322515;22;20244;-26
2023/01/04 16:29:56;;;;;;;1.50;0.93;;;;;;;;;;5062089;28;20206;-29
2023/01/04 16:40:35;;;;;;;1.80;0.70;;;;;;;;;;5198440;22;20240;-28
2023/01/04 16:43:43;;;;;;;0.60;0.60;;;;;;;;;;5038716;28;20233;-25
2023/01/04 16:46:27;;;;;;;0.70;0.70;;;;;;;;;;5047678;28;20205;-27
2023/01/04 16:49:16;;;;;;;0.83;0.60;;;;;;;;;;5046968;28;20207;-25
2023/01/04 16:52:02;;;;;;;0.50;0.50;;;;;;;;;;5046626;28;20257;-26
2023/01/04 16:54:36;;;;;;;0.50;0.50;;;;;;;;;;5042809;28;20222;-25
2023/01/04 16:57:18;;;;;;;;;;;;;;;;;;;;;
2023/01/04 17:00:05;;;;;;;1.00;0.70;;;;;;;;;;5039349;28;20198;-22
2023/01/04 17:02:57;;;;;;;;;;;;;;;;;;;;;
2023/01/04 17:05:43;;;;;;;2.27;0.87;;;;;;;;;;5055423;28;20209;-27
2023/01/04 17:08:25;;;;;;;1.30;1.10;;;;;;;;;;5050885;28;20222;-24
2023/01/04 17:11:16;;;;;;;1.33;1.03;;;;;;;;;;5052744;28;20236;-27
2023/01/04 17:13:56;;;;;;;0.70;0.63;;;;;;;;;;5041595;28;20220;-24
2023/01/04 17:22:27;;;;;;;2.50;0.80;;;;;;;;;;5596734;22;20204;-26
2023/01/04 17:25:08;;;;;;;0.50;0.50;;;;;;;;;;5067335;28;20205;-26
2023/01/04 17:27:39;;;;;;;0.87;0.87;;;;;;;;;;5067561;28;20212;-25
2023/01/04 17:33:06;;;;;;;1.10;1.00;;;;;;;;;;5187571;22;20232;-30
2023/01/04 17:36:04;;;;;;;0.70;0.70;;;;;;;;;;5074011;28;20205;-35
2023/01/04 17:39:14;;;;;;;0.80;0.73;;;;;;;;;;5069067;28;20229;-28
2023/01/04 17:41:56;;;;;;;0.80;0.73;;;;;;;;;;5052515;28;20257;-37
2023/01/04 17:44:28;;;;;;;0.90;0.90;;;;;;;;;;5047517;28;20205;-36
2023/01/04 17:47:11;;;;;;;1.00;1.00;;;;;;;;;;5052108;28;20251;-37
2023/01/04 17:55:49;;;;;;;1.10;0.80;;;;;;;;;;5064324;28;20213;-31
2023/01/04 18:04:43;;;;;;;1.03;1.03;;;;;;;;;;5013254;28;20222;-30
2023/01/04 18:13:18;;;;;;;1.87;0.87;;;;;;;;;;5428802;22;20240;-26
2023/01/04 18:16:06;;;;;;;0.90;0.90;;;;;;;;;;5064594;28;20230;-28
2023/01/04 18:18:50;;;;;;;1.80;1.17;;;;;;;;;;5071405;28;20217;-26
2023/01/04 18:21:42;;;;;;;1.20;1.10;;;;;;;;;;5063722;28;20221;-28
2023/01/04 18:24:33;;;;;;;1.07;0.97;;;;;;;;;;5059195;28;20220;-28
2023/01/04 18:27:27;;;;;;;0.93;0.90;;;;;;;;;;5067753;28;20198;-26
2023/01/04 18:30:09;;;;;;;1.20;1.07;;;;;;;;;;5061558;28;20212;-26
2023/01/04 18:32:51;;;;;;;3.57;2.10;;;;;;;;;;5054797;28;20218;-26
2023/01/04 18:35:32;;;;;;;8.87;4.43;;;;;;;;;;5073331;28;20213;-25
2023/01/04 18:43:23;;;;;;;3.23;1.83;;;;;;;;;;5051595;28;20229;-26
2023/01/04 19:04:31;;;;;;;1.43;1.07;;;;;;;;;;5918239;22;20240;-23
2023/01/04 19:10:49;;;;;;;4.83;2.93;;;;;;;;;;5062336;28;20284;-26
2023/01/04 19:13:38;;;;;;;2.70;2.13;;;;;;;;;;5041379;28;20232;-25
2023/01/04 19:16:21;;;;;;;2.27;1.03;;;;;;;;;;5049724;28;20205;-26
2023/01/04 19:19:05;;;;;;;4.30;3.03;;;;;;;;;;5052847;28;20303;-26
2023/01/04 19:22:21;;;;;;;4.23;2.37;;;;;;;;;;5054190;28;20256;-24
2023/01/04 19:25:01;;;;;;;9.37;5.53;;;;;;;;;;5041084;28;20224;-24
2023/01/04 19:27:43;;;;;;;8.97;5.47;;;;;;;;;;5050195;28;20294;-23
2023/01/04 19:35:46;;;;;;;0.70;0.70;;;;;;;;;;5173039;22;20332;-24
2023/01/04 19:38:27;;;;;;;7.10;4.33;;;;;;;;;;5052323;28;20734;-26
2023/01/04 19:47:10;;;;;;;1.17;1.07;;;;;;;;;;5045601;28;20262;-26
2023/01/04 19:50:14;;;;;;;1.53;1.30;;;;;;;;;;5053138;28;20320;-25
2023/01/04 19:52:46;;;;;;;0.90;0.90;;;;;;;;;;5034187;28;20304;-27
2023/01/04 19:58:41;;;;;;;0.67;0.40;;;;;;;;;;5021905;28;20363;-21
2023/01/04 20:01:28;;;;;;;19.03;12.00;;;;;;;;;;5034725;28;20253;-23
2023/01/04 20:04:14;;;;;;;6.97;4.83;;;;;;;;;;5048924;28;20263;-27
2023/01/04 20:06:49;;;;;;;2.67;2.47;;;;;;;;;;5037396;28;20214;-27
2023/01/04 20:09:53;;;;;;;2.60;0.80;;;;;;;;;;5035525;28;20199;-25
2023/01/04 20:12:28;;;;;;;9.07;2.70;;;;;;;;;;5030338;28;20241;-23
2023/01/04 20:18:02;;;;;;;0.73;0.70;;;;;;;;;;5017133;28;20290;-27
2023/01/04 20:20:54;;;;;;;0.50;0.50;;;;;;;;;;5018670;28;20283;-25
2023/01/04 20:23:40;;;;;;;0.90;0.90;;;;;;;;;;5040470;28;20241;-27
2023/01/04 20:26:43;;;;;;;0.80;0.80;;;;;;;;;;5586437;22;20298;-27
2023/01/04 20:29:16;;;;;;;2.30;0.53;;;;;;;;;;5069645;28;20201;-23
2023/01/04 20:32:13;;;;;;;0.53;0.53;;;;;;;;;;5057462;28;20213;-22
2023/01/04 20:35:13;;;;;;;1.30;1.20;;;;;;;;;;5056714;28;20209;-27
2023/01/04 20:45:43;;;;;;;0.60;0.60;;;;;;;;;;5033105;28;20225;-26
2023/01/04 20:48:29;;;;;;;0.90;0.60;;;;;;;;;;5031065;28;20210;-24
2023/01/04 20:54:16;;;;;;;0.43;0.43;;;;;;;;;;5023642;28;20238;-27
2023/01/04 20:56:55;;;;;;;0.73;0.60;;;;;;;;;;5025552;28;20217;-26
2023/01/04 20:59:27;;;;;;;1.67;0.40;;;;;;;;;;5024311;28;20236;-25
2023/01/04 21:02:02;;;;;;;0.40;0.40;;;;;;;;;;5034899;28;20230;-25
2023/01/04 21:12:37;;;;;;;0.40;0.40;;;;;;;;;;5033113;28;20230;-26
2023/01/04 21:15:17;;;;;;;0.30;0.30;;;;;;;;;;5013456;28;20207;-23
2023/01/04 21:17:56;;;;;;;0.37;0.37;;;;;;;;;;5015497;28;20246;-25
2023/01/04 21:20:43;;;;;;;1.40;0.30;;;;;;;;;;5015204;28;20327;-23
2023/01/04 21:23:35;;;;;;;0.40;0.40;;;;;;;;;;5014020;28;20207;-24
2023/01/04 21:45:36;;;;;;;0.30;0.30;;;;;;;;;;5047189;28;20236;-25
2023/01/04 21:48:26;;;;;;;0.60;0.37;;;;;;;;;;5055081;28;20218;-29
2023/01/04 21:51:24;;;;;;;0.30;0.30;;;;;;;;;;5051699;28;20241;-27
2023/01/04 21:54:19;;;;;;;0.40;0.40;;;;;;;;;;5053865;28;20222;-28
2023/01/04 21:56:56;;;;;;;0.40;0.40;;;;;;;;;;5038320;28;20213;-24
2023/01/04 22:00:12;;;;;;;0.97;0.53;;;;;;;;;;5050529;28;20232;-27
2023/01/04 22:03:09;;;;;;;0.40;0.40;;;;;;;;;;5051529;28;20221;-27
2023/01/04 22:08:38;;;;;;;1.30;0.30;;;;;;;;;;5049031;28;20297;-25
2023/01/04 22:14:13;;;;;;;0.40;0.37;;;;;;;;;;5047467;28;20289;-26
2023/01/04 22:17:05;;;;;;;0.50;0.50;;;;;;;;;;5051392;28;21191;-24
2023/01/04 22:26:46;;;;;;;0.30;0.30;;;;;;;;;;5067469;28;20255;-27
2023/01/04 22:35:22;;;;;;;0.40;0.23;;;;;;;;;;5099242;22;20244;-28
2023/01/04 22:38:03;;;;;;;0.47;0.33;;;;;;;;;;5042333;28;20206;-30
2023/01/04 23:04:32;;;;;;;0.40;0.40;;;;;;;;;;5060976;28;20213;-33
2023/01/04 23:22:16;;;;;;;0.30;0.30;;;;;;;;;;5069810;22;20247;-29
2023/01/04 23:39:43;;;;;;;0.63;0.30;;;;;;;;;;5045818;28;20225;-27
2023/01/04 23:42:31;;;;;;;0.30;0.30;;;;;;;;;;5050065;28;20234;-23
2023/01/04 23:48:15;;;;;;;0.17;0.10;;;;;;;;;;5056968;28;20266;-29
2023/01/04 23:51:11;;;;;;;0.60;0.60;;;;;;;;;;5054144;28;20237;-27
2023/01/04 23:54:09;;;;;;;0.40;0.40;;;;;;;;;;5051772;28;20217;-28
2023/01/04 23:57:05;;;;;;;0.23;0.23;;;;;;;;;;5056247;28;20253;-26
2023/01/04 23:59:46;;;;;;;0.30;0.30;;;;;;;;;;5055234;28;20441;-26
